createdAt,value
2023-04-05T00:01:13.716Z,1.00
2023-04-05T00:03:41.279Z,0.90
2023-04-05T00:06:08.001Z,0.80
2023-04-05T00:08:34.653Z,0.80
2023-04-05T00:11:01.344Z,0.80
2023-04-05T00:13:27.996Z,0.80
2023-04-05T00:15:57.827Z,0.80
2023-04-05T00:18:25.369Z,0.80
2023-04-05T00:20:52.497Z,0.90
2023-04-05T00:23:20.601Z,0.90
2023-04-05T00:25:47.398Z,0.90
2023-04-05T00:28:14.102Z,0.90
2023-04-05T00:30:40.930Z,0.80
2023-04-05T00:33:07.870Z,0.80
2023-04-05T00:35:35.770Z,0.80
2023-04-05T00:38:02.515Z,0.80
2023-04-05T00:40:29.199Z,0.80
2023-04-05T00:42:55.958Z,0.80
2023-04-05T00:45:22.676Z,0.80
2023-04-05T00:47:49.555Z,0.90
2023-04-05T00:50:16.415Z,0.90
2023-04-05T00:52:44.033Z,0.80
2023-04-05T00:55:11.176Z,0.80
2023-04-05T00:57:39.231Z,0.80
2023-04-05T01:00:09.468Z,0.90
2023-04-05T01:02:40.494Z,0.80
2023-04-05T01:05:14.568Z,0.80
2023-04-05T01:07:51.207Z,0.80
2023-04-05T01:10:22.160Z,0.80
2023-04-05T01:12:48.951Z,0.70
2023-04-05T01:15:15.568Z,0.70
2023-04-05T01:17:42.684Z,0.70
2023-04-05T01:20:10.605Z,0.70
2023-04-05T01:22:46.658Z,0.60
2023-04-05T01:25:22.705Z,0.60
2023-04-05T01:27:49.328Z,0.60
2023-04-05T01:30:21.333Z,0.50
2023-04-05T01:32:57.196Z,0.50
2023-04-05T01:35:23.929Z,0.50
2023-04-05T01:37:55.784Z,0.40
2023-04-05T01:40:22.860Z,0.50
2023-04-05T01:42:49.578Z,0.40
2023-04-05T01:45:16.599Z,0.40
2023-04-05T01:47:45.222Z,0.30
2023-04-05T01:50:11.882Z,0.40
2023-04-05T01:52:38.569Z,0.30
2023-04-05T01:55:05.378Z,0.20
2023-04-05T01:57:31.986Z,0.20
2023-04-05T01:59:58.653Z,0.20
2023-04-05T02:02:25.353Z,0.10
2023-04-05T02:04:52.523Z,0.10
2023-04-05T02:07:19.302Z,0.20
2023-04-05T02:09:46.045Z,0.20
2023-04-05T02:12:12.661Z,0.20
2023-04-05T02:14:39.404Z,0.10
2023-04-05T02:17:06.103Z,0.10
2023-04-05T02:19:40.857Z,0.10
2023-04-05T02:22:08.423Z,0.10
2023-04-05T02:24:35.267Z,0.00
2023-04-05T02:27:02.019Z,-0.10
2023-04-05T02:29:28.969Z,-0.10
2023-04-05T02:31:55.818Z,-0.20
2023-04-05T02:34:22.976Z,-0.20
2023-04-05T02:36:53.298Z,-0.20
2023-04-05T02:39:20.738Z,-0.30
2023-04-05T02:41:47.372Z,-0.30
2023-04-05T02:44:14.051Z,-0.30
2023-04-05T02:46:41.038Z,-0.30
2023-04-05T02:49:07.754Z,-0.40
2023-04-05T02:51:34.546Z,-0.40
2023-04-05T02:54:02.174Z,-0.50
2023-04-05T02:56:30.075Z,-0.50
2023-04-05T02:58:56.825Z,-0.60
2023-04-05T03:01:23.993Z,-0.60
2023-04-05T03:03:51.110Z,-0.70
2023-04-05T03:06:18.250Z,-0.70
2023-04-05T03:08:46.229Z,-0.80
2023-04-05T03:11:13.201Z,-0.80
2023-04-05T03:13:39.909Z,-0.80
2023-04-05T03:16:06.711Z,-0.90
2023-04-05T03:18:33.379Z,-0.90
2023-04-05T03:21:00.078Z,-0.90
2023-04-05T03:23:30.814Z,-0.90
2023-04-05T03:25:57.498Z,-1.00
2023-04-05T03:28:24.810Z,-1.00
2023-04-05T03:30:51.839Z,-1.00
2023-04-05T03:33:20.481Z,-1.10
2023-04-05T03:35:47.415Z,-1.20
2023-04-05T03:38:14.143Z,-1.20
2023-04-05T03:40:40.851Z,-1.20
2023-04-05T03:43:07.550Z,-1.20
2023-04-05T03:45:34.333Z,-1.20
2023-04-05T03:48:01.086Z,-1.20
2023-04-05T03:50:27.834Z,-1.30
2023-04-05T03:52:54.788Z,-1.40
2023-04-05T03:55:21.438Z,-1.40
2023-04-05T03:57:48.368Z,-1.50
2023-04-05T04:00:15.193Z,-1.50
2023-04-05T04:02:42.925Z,-1.50
2023-04-05T04:05:09.702Z,-1.40
2023-04-05T04:07:36.363Z,-1.50
2023-04-05T04:10:04.253Z,-1.40
2023-04-05T04:12:30.910Z,-1.50
2023-04-05T04:14:57.766Z,-1.60
2023-04-05T04:17:28.620Z,-1.60
2023-04-05T04:19:55.632Z,-1.60
2023-04-05T04:22:22.598Z,-1.70
2023-04-05T04:24:50.172Z,-1.70
2023-04-05T04:27:20.436Z,-1.70
2023-04-05T04:29:47.991Z,-1.70
2023-04-05T04:32:26.557Z,-1.70
2023-04-05T04:34:55.865Z,-1.70
2023-04-05T04:37:22.908Z,-1.70
2023-04-05T04:39:49.551Z,-1.70
2023-04-05T04:42:19.975Z,-1.80
2023-04-05T04:44:46.645Z,-1.80
2023-04-05T04:47:14.426Z,-1.80
2023-04-05T04:49:41.700Z,-1.80
2023-04-05T04:52:08.384Z,-1.80
2023-04-05T04:54:35.830Z,-1.80
2023-04-05T04:57:02.908Z,-1.80
2023-04-05T04:59:29.809Z,-1.90
2023-04-05T05:01:56.559Z,-1.90
2023-04-05T05:04:23.603Z,-1.90
2023-04-05T05:06:51.269Z,-1.90
2023-04-05T05:09:17.936Z,-1.90
2023-04-05T05:11:44.531Z,-1.90
2023-04-05T05:14:11.145Z,-1.90
2023-04-05T05:16:38.638Z,-1.90
2023-04-05T05:19:05.346Z,-1.80
2023-04-05T05:21:32.100Z,-1.80
2023-04-05T05:23:58.759Z,-1.70
2023-04-05T05:26:25.481Z,-1.70
2023-04-05T05:28:52.202Z,-1.70
2023-04-05T05:31:19.440Z,-1.60
2023-04-05T05:33:49.540Z,-1.60
2023-04-05T05:36:16.259Z,-1.60
2023-04-05T05:38:43.598Z,-1.60
2023-04-05T05:41:10.362Z,-1.50
2023-04-05T05:43:36.977Z,-1.40
2023-04-05T05:46:03.761Z,-1.40
2023-04-05T05:48:30.967Z,-1.40
2023-04-05T05:51:01.664Z,-1.40
2023-04-05T05:53:28.524Z,-1.30
2023-04-05T05:55:56.108Z,-1.20
2023-04-05T05:58:22.771Z,-1.20
2023-04-05T06:00:51.580Z,-1.20
2023-04-05T06:03:19.381Z,-1.10
2023-04-05T06:05:53.112Z,-1.10
2023-04-05T06:08:19.878Z,-1.00
2023-04-05T06:10:46.609Z,-1.00
2023-04-05T06:13:13.322Z,-0.90
2023-04-05T06:15:39.940Z,-0.80
2023-04-05T06:18:06.622Z,-0.80
2023-04-05T06:20:33.270Z,-0.70
2023-04-05T06:23:00.140Z,-0.60
2023-04-05T06:25:26.858Z,-0.50
2023-04-05T06:27:53.461Z,-0.50
2023-04-05T06:30:20.296Z,-0.40
2023-04-05T06:32:48.687Z,-0.30
2023-04-05T06:35:15.623Z,-0.30
2023-04-05T06:37:42.348Z,-0.20
2023-04-05T06:40:09.301Z,-0.20
2023-04-05T06:42:36.024Z,-0.10
2023-04-05T06:45:04.359Z,0.00
2023-04-05T06:47:37.701Z,0.00
2023-04-05T06:50:05.028Z,0.10
2023-04-05T06:52:31.967Z,0.10
2023-04-05T06:54:58.642Z,0.20
2023-04-05T06:57:25.344Z,0.30
2023-04-05T06:59:52.652Z,0.40
2023-04-05T07:02:19.937Z,0.50
2023-04-05T07:04:47.194Z,0.50
2023-04-05T07:07:13.885Z,0.60
2023-04-05T07:09:40.741Z,0.70
2023-04-05T07:12:08.003Z,0.80
2023-04-05T07:14:35.984Z,0.80
2023-04-05T07:17:08.802Z,0.90
2023-04-05T07:19:35.581Z,1.00
2023-04-05T07:22:02.279Z,1.10
2023-04-05T07:24:29.089Z,1.20
2023-04-05T07:26:56.862Z,1.40
2023-04-05T07:29:23.615Z,1.50
2023-04-05T07:31:50.308Z,1.50
2023-04-05T07:34:17.018Z,1.60
2023-04-05T07:36:43.654Z,1.70
2023-04-05T07:39:10.390Z,1.80
2023-04-05T07:41:37.627Z,2.00
2023-04-05T07:44:04.284Z,2.10
2023-04-05T07:46:31.062Z,2.10
2023-04-05T07:48:58.389Z,2.20
2023-04-05T07:51:25.132Z,2.20
2023-04-05T07:53:51.749Z,2.30
2023-04-05T07:56:18.446Z,2.50
2023-04-05T07:58:45.113Z,2.50
2023-04-05T08:01:11.961Z,2.60
2023-04-05T08:03:39.953Z,2.70
2023-04-05T08:06:13.815Z,2.80
2023-04-05T08:08:41.316Z,2.90
2023-04-05T08:11:08.106Z,3.00
2023-04-05T08:13:34.919Z,3.10
2023-04-05T08:16:02.283Z,3.20
2023-04-05T08:18:29.045Z,3.30
2023-04-05T08:20:56.380Z,3.30
2023-04-05T08:23:23.120Z,3.40
2023-04-05T08:25:50.291Z,3.40
2023-04-05T08:28:16.990Z,3.50
2023-04-05T08:30:43.821Z,3.60
2023-04-05T08:33:10.939Z,3.70
2023-04-05T08:35:38.189Z,3.70
2023-04-05T08:38:05.234Z,3.70
2023-04-05T08:40:37.184Z,3.90
2023-04-05T08:43:07.076Z,4.10
2023-04-05T08:45:34.296Z,4.40
2023-04-05T08:48:02.130Z,4.60
2023-04-05T08:50:28.828Z,4.80
2023-04-05T08:52:55.675Z,5.00
2023-04-05T08:55:22.462Z,5.20
2023-04-05T08:57:51.337Z,5.30
2023-04-05T09:00:18.168Z,5.30
2023-04-05T09:02:47.581Z,5.40
2023-04-05T09:05:14.766Z,5.60
2023-04-05T09:07:42.284Z,5.80
2023-04-05T09:10:09.335Z,6.10
2023-04-05T09:12:36.715Z,6.20
2023-04-05T09:15:03.389Z,6.40
2023-04-05T09:17:32.470Z,6.40
2023-04-05T09:19:59.225Z,6.60
2023-04-05T09:22:25.914Z,6.70
2023-04-05T09:24:52.537Z,6.70
2023-04-05T09:27:19.814Z,6.40
2023-04-05T09:29:47.262Z,6.00
2023-04-05T09:32:59.734Z,6.30
2023-04-05T09:35:36.425Z,6.30
2023-04-05T09:38:03.837Z,6.10
2023-04-05T09:40:43.189Z,6.30
2023-04-05T09:43:10.922Z,6.10
2023-04-05T09:45:41.688Z,6.10
2023-04-05T09:48:09.011Z,6.00
2023-04-05T09:50:36.123Z,5.80
2023-04-05T09:53:42.474Z,5.70
2023-04-05T09:56:09.844Z,5.60
2023-04-05T09:58:38.915Z,5.40
2023-04-05T10:03:46.022Z,5.40
2023-04-05T10:06:12.873Z,5.70
2023-04-05T10:08:39.533Z,6.10
2023-04-05T10:11:14.163Z,6.40
2023-04-05T10:13:41.376Z,6.50
2023-04-05T10:16:11.858Z,6.70
2023-04-05T10:18:46.310Z,6.80
2023-04-05T10:21:15.654Z,6.60
2023-04-05T10:23:44.613Z,6.70
2023-04-05T10:26:19.002Z,7.00
2023-04-05T10:28:48.265Z,6.70
2023-04-05T10:31:24.040Z,6.30
2023-04-05T10:34:03.476Z,6.40
2023-04-05T10:36:46.742Z,6.20
2023-04-05T10:39:16.873Z,6.00
2023-04-05T10:41:47.905Z,6.00
2023-04-05T10:44:25.831Z,6.00
2023-04-05T10:46:54.915Z,5.80
2023-04-05T10:49:27.482Z,5.90
2023-04-05T10:51:54.335Z,6.10
2023-04-05T10:54:21.400Z,6.00
2023-04-05T10:56:48.128Z,6.10
2023-04-05T10:59:15.082Z,6.10
2023-04-05T11:01:42.100Z,6.10
2023-04-05T11:04:15.811Z,6.20
2023-04-05T11:06:48.490Z,6.30
2023-04-05T11:09:20.353Z,6.50
2023-04-05T11:11:48.244Z,6.60
2023-04-05T11:14:17.885Z,6.50
2023-04-05T11:16:47.100Z,6.30
2023-04-05T11:19:16.365Z,6.10
2023-04-05T11:21:44.468Z,6.20
2023-04-05T11:24:12.607Z,6.30
2023-04-05T11:26:48.404Z,6.40
2023-04-05T11:29:18.075Z,6.50
2023-04-05T11:32:01.201Z,6.70
2023-04-05T11:34:27.868Z,6.80
2023-04-05T11:36:54.667Z,7.00
2023-04-05T11:39:21.507Z,7.00
2023-04-05T11:41:54.299Z,7.20
2023-04-05T11:44:21.477Z,7.20
2023-04-05T11:46:48.436Z,7.10
2023-04-05T11:49:15.810Z,6.80
2023-04-05T11:51:43.092Z,6.70
2023-04-05T11:54:10.049Z,6.80
2023-04-05T11:56:37.677Z,6.90
2023-04-05T11:59:04.329Z,7.00
2023-04-05T12:01:31.336Z,7.10
2023-04-05T12:03:58.219Z,7.30
2023-04-05T12:06:26.136Z,7.30
2023-04-05T12:08:53.472Z,7.30
2023-04-05T12:11:27.264Z,7.40
2023-04-05T12:13:58.661Z,7.30
2023-04-05T12:16:25.602Z,7.30
2023-04-05T12:18:55.310Z,7.30
2023-04-05T12:21:22.247Z,7.20
2023-04-05T12:23:49.848Z,7.20
2023-04-05T12:26:16.722Z,7.60
2023-04-05T12:28:49.848Z,7.40
2023-04-05T12:31:16.525Z,7.60
2023-04-05T12:33:43.555Z,7.90
2023-04-05T12:36:11.618Z,7.90
2023-04-05T12:38:38.666Z,7.80
2023-04-05T12:41:05.749Z,7.70
2023-04-05T12:43:39.413Z,7.50
2023-04-05T12:46:09.753Z,7.30
2023-04-05T12:48:37.195Z,7.20
2023-04-05T12:51:05.036Z,7.20
2023-04-05T12:53:31.694Z,7.30
2023-04-05T12:55:58.795Z,7.60
2023-04-05T12:58:35.862Z,7.70
2023-04-05T13:01:03.166Z,7.60
2023-04-05T13:03:30.032Z,7.50
2023-04-05T13:05:56.831Z,7.50
2023-04-05T13:08:26.939Z,7.70
2023-04-05T13:10:54.635Z,7.60
2023-04-05T13:13:23.078Z,7.60
2023-04-05T13:15:52.026Z,7.50
2023-04-05T13:18:20.898Z,7.70
2023-04-05T13:20:47.748Z,7.80
2023-04-05T13:23:16.998Z,7.80
2023-04-05T13:25:45.551Z,7.80
2023-04-05T13:28:12.351Z,7.70
2023-04-05T13:30:39.218Z,7.70
2023-04-05T13:33:05.862Z,7.70
2023-04-05T13:35:33.048Z,7.90
2023-04-05T13:38:04.017Z,7.80
2023-04-05T13:40:32.054Z,8.00
2023-04-05T13:42:58.896Z,7.80
2023-04-05T13:45:25.678Z,7.90
2023-04-05T13:47:52.629Z,7.90
2023-04-05T13:50:19.351Z,7.80
2023-04-05T13:52:46.136Z,7.90
2023-04-05T13:55:12.986Z,7.90
2023-04-05T13:57:39.644Z,8.00
2023-04-05T14:00:07.108Z,8.00
2023-04-05T14:02:34.037Z,8.00
2023-04-05T14:05:01.300Z,7.90
2023-04-05T14:07:28.542Z,7.80
2023-04-05T14:09:55.467Z,7.90
2023-04-05T14:12:22.177Z,8.00
2023-04-05T14:14:48.863Z,8.00
2023-04-05T14:17:15.788Z,8.20
2023-04-05T14:19:42.509Z,8.10
2023-04-05T14:22:09.551Z,8.10
2023-04-05T14:24:36.295Z,8.10
2023-04-05T14:27:02.962Z,8.30
2023-04-05T14:29:29.791Z,8.30
2023-04-05T14:31:56.658Z,8.20
2023-04-05T14:34:23.473Z,8.10
2023-04-05T14:36:50.358Z,8.20
2023-04-05T14:39:17.215Z,8.10
2023-04-05T14:41:49.931Z,8.10
2023-04-05T14:44:17.767Z,8.10
2023-04-05T14:46:44.558Z,8.10
2023-04-05T14:49:11.328Z,8.00
2023-04-05T14:51:38.033Z,8.30
2023-04-05T14:54:04.937Z,8.30
2023-04-05T14:56:31.589Z,8.30
2023-04-05T14:58:58.699Z,8.20
2023-04-05T15:01:25.651Z,8.10
2023-04-05T15:03:53.802Z,8.30
2023-04-05T15:06:20.841Z,8.20
2023-04-05T15:08:47.594Z,8.40
2023-04-05T15:11:14.396Z,8.20
2023-04-05T15:13:41.095Z,8.20
2023-04-05T15:16:07.932Z,8.30
2023-04-05T15:18:34.787Z,8.40
2023-04-05T15:21:01.496Z,8.50
2023-04-05T15:23:28.223Z,8.30
2023-04-05T15:25:54.865Z,8.30
2023-04-05T15:28:21.542Z,8.30
2023-04-05T15:30:48.323Z,8.40
2023-04-05T15:33:16.448Z,8.40
2023-04-05T15:35:43.191Z,8.30
2023-04-05T15:38:09.898Z,8.20
2023-04-05T15:40:36.618Z,8.10
2023-04-05T15:43:03.321Z,8.10
2023-04-05T15:45:30.050Z,8.20
2023-04-05T15:47:57.166Z,8.10
2023-04-05T15:50:23.980Z,8.00
2023-04-05T15:52:51.032Z,7.90
2023-04-05T15:55:17.795Z,7.80
2023-04-05T15:57:44.557Z,7.80
2023-04-05T16:00:11.753Z,7.90
2023-04-05T16:02:38.834Z,7.80
2023-04-05T16:05:05.765Z,7.80
2023-04-05T16:07:32.968Z,7.70
2023-04-05T16:09:59.638Z,7.70
2023-04-05T16:12:26.373Z,7.90
2023-04-05T16:14:53.072Z,7.90
2023-04-05T16:17:19.864Z,7.90
2023-04-05T16:19:46.620Z,8.20
2023-04-05T16:22:13.397Z,8.30
2023-04-05T16:24:40.231Z,8.20
2023-04-05T16:27:06.890Z,8.10
2023-04-05T16:29:33.638Z,8.60
2023-04-05T16:32:00.608Z,8.70
2023-04-05T16:34:27.485Z,9.00
2023-04-05T16:36:54.261Z,9.30
2023-04-05T16:39:20.998Z,9.60
2023-04-05T16:41:47.664Z,9.70
2023-04-05T16:44:14.455Z,9.50
2023-04-05T16:46:41.219Z,9.40
2023-04-05T16:49:07.933Z,9.30
2023-04-05T16:51:36.007Z,9.40
2023-04-05T16:54:03.274Z,9.40
2023-04-05T16:56:30.078Z,9.60
2023-04-05T16:58:57.604Z,9.50
2023-04-05T17:01:24.555Z,9.40
2023-04-05T17:03:51.343Z,8.90
2023-04-05T17:06:18.095Z,8.10
2023-04-05T17:08:44.798Z,7.50
2023-04-05T17:11:11.538Z,7.20
2023-04-05T17:13:38.293Z,6.90
2023-04-05T17:16:05.253Z,6.70
2023-04-05T17:18:31.976Z,6.60
2023-04-05T17:20:58.675Z,6.40
2023-04-05T17:23:25.686Z,6.20
2023-04-05T17:25:52.491Z,6.10
2023-04-05T17:28:19.450Z,5.90
2023-04-05T17:30:46.755Z,5.80
2023-04-05T17:33:15.456Z,5.70
2023-04-05T17:35:42.250Z,5.60
2023-04-05T17:38:10.352Z,5.50
2023-04-05T17:40:37.265Z,5.30
2023-04-05T17:43:04.059Z,5.20
2023-04-05T17:45:41.857Z,5.10
2023-04-05T17:48:10.019Z,5.10
2023-04-05T17:50:38.413Z,4.90
2023-04-05T17:53:11.642Z,4.80
2023-04-05T17:55:38.569Z,4.80
2023-04-05T17:58:06.515Z,4.70
2023-04-05T18:00:33.386Z,4.70
2023-04-05T18:03:07.601Z,4.60
2023-04-05T18:05:35.222Z,4.60
2023-04-05T18:08:02.029Z,4.50
2023-04-05T18:10:28.672Z,4.50
2023-04-05T18:12:55.750Z,4.40
2023-04-05T18:15:22.452Z,4.30
2023-04-05T18:17:54.738Z,4.20
2023-04-05T18:20:25.984Z,4.10
2023-04-05T18:22:58.101Z,4.00
2023-04-05T18:25:27.303Z,3.90
2023-04-05T18:42:54.523Z,3.50
2023-04-05T18:45:23.381Z,3.40
2023-04-05T18:47:51.134Z,3.30
2023-04-05T18:50:21.326Z,3.30
2023-04-05T18:52:49.360Z,3.20
2023-04-05T18:55:17.318Z,3.20
2023-04-05T18:57:45.226Z,3.20
2023-04-05T19:00:13.011Z,3.10
2023-04-05T19:02:43.008Z,3.00
2023-04-05T19:05:11.060Z,3.00
2023-04-05T19:07:38.712Z,2.90
2023-04-05T19:10:07.015Z,2.90
2023-04-05T19:12:36.782Z,2.80
2023-04-05T19:15:04.914Z,2.80
2023-04-05T19:17:34.519Z,2.70
2023-04-05T19:20:02.613Z,2.70
2023-04-05T19:22:31.897Z,2.70
2023-04-05T19:25:01.766Z,2.70
2023-04-05T19:27:35.790Z,2.60
2023-04-05T19:30:05.494Z,2.60
2023-04-05T19:32:33.651Z,2.50
2023-04-05T19:35:13.585Z,2.50
2023-04-05T19:37:41.719Z,2.40
2023-04-05T19:40:10.309Z,2.40
2023-04-05T19:42:39.717Z,2.30
2023-04-05T19:45:13.089Z,2.30
2023-04-05T19:47:44.152Z,2.30
2023-04-05T19:50:41.115Z,2.30
2023-04-05T19:53:08.941Z,2.20
2023-04-05T19:55:37.906Z,2.20
2023-04-05T19:58:11.488Z,2.10
2023-04-05T20:00:49.229Z,2.10
2023-04-05T20:03:31.367Z,2.00
2023-04-05T20:05:59.627Z,2.00
2023-04-05T20:08:27.660Z,2.00
2023-04-05T20:10:55.599Z,1.90
2023-04-05T20:13:26.991Z,1.90
2023-04-05T20:15:55.714Z,1.80
2023-04-05T20:18:28.161Z,1.80
2023-04-05T20:20:57.880Z,1.80
2023-04-05T20:23:28.245Z,1.70
2023-04-05T20:25:56.517Z,1.70
2023-04-05T20:28:24.601Z,1.60
2023-04-05T20:30:53.940Z,1.60
2023-04-05T20:33:35.907Z,1.60
2023-04-05T20:36:09.907Z,1.50
2023-04-05T20:38:47.631Z,1.40
2023-04-05T20:41:15.092Z,1.40
2023-04-05T20:43:42.489Z,1.40
2023-04-05T20:46:09.662Z,1.30
2023-04-05T20:48:36.853Z,1.30
2023-04-05T20:51:04.843Z,1.20
2023-04-05T20:53:31.872Z,1.10
2023-04-05T20:56:00.713Z,1.10
2023-04-05T20:58:27.880Z,1.10
2023-04-05T21:00:55.938Z,1.10
2023-04-05T21:03:23.195Z,1.00
2023-04-05T21:05:51.299Z,1.00
2023-04-05T21:08:18.340Z,0.90
2023-04-05T21:10:45.846Z,0.90
2023-04-05T21:13:12.531Z,0.80
2023-04-05T21:15:41.322Z,0.70
2023-04-05T21:18:08.444Z,0.70
2023-04-05T21:20:38.290Z,0.60
2023-04-05T21:23:05.157Z,0.60
2023-04-05T21:25:32.086Z,0.70
2023-04-05T21:27:59.526Z,0.60
2023-04-05T21:30:26.785Z,0.60
2023-04-05T21:32:54.054Z,0.60
2023-04-05T21:35:26.002Z,0.60
2023-04-05T21:37:52.750Z,0.50
2023-04-05T21:40:19.694Z,0.50
2023-04-05T21:42:46.461Z,0.40
2023-04-05T21:45:15.462Z,0.40
2023-04-05T21:47:42.169Z,0.40
2023-04-05T21:50:09.165Z,0.30
2023-04-05T21:52:36.509Z,0.30
2023-04-05T21:55:04.344Z,0.30
2023-04-05T21:57:33.435Z,0.30
2023-04-05T22:00:00.792Z,0.30
2023-04-05T22:02:27.634Z,0.30
2023-04-05T22:04:54.391Z,0.20
2023-04-05T22:07:21.201Z,0.20
2023-04-05T22:09:47.872Z,0.20
2023-04-05T22:12:15.508Z,0.10
2023-04-05T22:14:42.226Z,0.10
2023-04-05T22:17:08.937Z,0.00
2023-04-05T22:19:35.670Z,0.00
2023-04-05T22:22:02.376Z,0.00
2023-04-05T22:24:29.051Z,0.00
2023-04-05T22:26:58.707Z,-0.10
2023-04-05T22:29:25.468Z,-0.10
2023-04-05T22:31:52.297Z,-0.10
2023-04-05T22:34:19.003Z,-0.10
2023-04-05T22:36:45.687Z,-0.10
2023-04-05T22:39:13.513Z,-0.10
2023-04-05T22:41:40.784Z,-0.10
2023-04-05T22:44:08.931Z,-0.20
2023-04-05T22:46:37.601Z,-0.20
2023-04-05T22:49:04.703Z,-0.20
2023-04-05T22:51:32.471Z,-0.30
2023-04-05T22:54:00.502Z,-0.30
2023-04-05T22:56:27.804Z,-0.40
2023-04-05T22:58:55.891Z,-0.50
2023-04-05T23:01:22.617Z,-0.50
2023-04-05T23:03:49.296Z,-0.50
2023-04-05T23:06:16.090Z,-0.50
2023-04-05T23:08:42.763Z,-0.60
2023-04-05T23:11:09.567Z,-0.60
2023-04-05T23:13:36.383Z,-0.60
2023-04-05T23:16:03.250Z,-0.70
2023-04-05T23:18:30.075Z,-0.70
2023-04-05T23:20:56.719Z,-0.60
2023-04-05T23:23:23.375Z,-0.70
2023-04-05T23:25:50.173Z,-0.70
2023-04-05T23:28:17.002Z,-0.70
2023-04-05T23:30:43.868Z,-0.80
2023-04-05T23:33:12.782Z,-0.80
2023-04-05T23:35:40.434Z,-0.70
2023-04-05T23:38:07.340Z,-0.70
2023-04-05T23:40:34.152Z,-0.70
2023-04-05T23:43:00.957Z,-0.70
2023-04-05T23:45:27.848Z,-0.80
2023-04-05T23:47:55.886Z,-0.80
2023-04-05T23:50:22.672Z,-0.80
2023-04-05T23:52:49.506Z,-0.80
2023-04-05T23:55:16.357Z,-0.90
2023-04-05T23:57:43.070Z,-0.90
